SJC - Norman Y Mineta San Jose Intl

Pirep is a free, collaborative database of all public and private airports located within the United States. All pilots are welcome to contribute, edit, and improve any airport they have local knowledge about, no registration required.
Uploaded photos will be licensed under a CC BY-SA 4.0 license. Please only upload photos you have the rights to use.
Tags
Public
METAR / TAF
Flying Clubs
Edit Tags
Food
Camping
Lodging
Car Rental
Bicycles
Swimming
Golfing
Fishing
Hot Springs
Museum
Airpark
Upcoming Events
No upcoming events. Is anything happening here soon?
*
*
*

Where exactly on/near the airport is this event taking place?

Is there a webpage with more information for this event?

Who should be contacted for more information?

What is this event all about?

Repeat every
Description
Transient Parking
Fuel Location
Landing & Tie-down Fees
Crew Car Availability
Flying Clubs
Last updated: 2024-03-13 18:22:30 PDT
WiFi Access
Airport Statistics
Location: San Jose, CA
Elevation: 62ft
Sectional: San Francisco
Activation date: Feb 1946
Fuel: 100LL, A (prices)
Runway 12L/30R: 11,000ft
Runway 12R/30L: 11,000ft
Access: Open to the public
Current Weather — VFR
  • Weather data is strictly informational and not for flight planning purposes.
  • METAR
    2024-06-17 04:53:00 PDT
    Ceiling Wind Temperature Dewpoint Weather Visbility
    Sky clear Variable 57°F 46°F N/A 10SM
    Raw: KSJC 171153Z AUTO VRB05KT 10SM CLR 14/08 A2989 RMK AO2 SLP119 T01390078 10172 20139 55003
  • TAF
    2024-06-17 05:00:00 PDT – 2024-06-17 14:00:00 PDT
    Ceiling Wind Weather Visbility
    Sky clear 330° @ 12kt N/A 6SM
    Clouds: @ ft
    Raw: KSJC 171120Z 1712/1812 33012KT P6SM SKC FM172100 31014G23KT P6SM SKC FM180400 32010KT P6SM SKC
  • TAF
    2024-06-17 14:00:00 PDT – 2024-06-17 21:00:00 PDT
    Ceiling Wind Weather Visbility
    Sky clear 310° @ 14kt, gusts 23kt N/A 6SM
    Clouds: @ ft
    Raw: KSJC 171120Z 1712/1812 33012KT P6SM SKC FM172100 31014G23KT P6SM SKC FM180400 32010KT P6SM SKC
  • TAF
    2024-06-17 21:00:00 PDT – 2024-06-18 05:00:00 PDT
    Ceiling Wind Weather Visbility
    Sky clear 320° @ 10kt N/A 6SM
    Clouds: @ ft
    Raw: KSJC 171120Z 1712/1812 33012KT P6SM SKC FM172100 31014G23KT P6SM SKC FM180400 32010KT P6SM SKC
Click/tap to add an annotation marker to the map
Airport Webcams
No webcams added yet.
Direct links to live image URLs will be displayed inline on this page. URLs to separate webpages will be linked to.
URL:
Direct links to live image URLs will be displayed inline on this page. URLs to separate webpages will be linked to.
URL:
Remarks
  • Birds frequently on or in vicinity of airport.
  • Twy y will be periodically rstrd to acft with a wingspan of less than 171 ft (md-11 or smaller) drg b-787 and b-747 opns on rwy 12l/30r.
  • Twy z will be periodically rstrd to acft with a wingspan of less than 118 ft (b-737-900 or smaller) drg b-787 and b-747 opns. twy z btn 200 ft nw of twy h and 200 ft nw of twy k ltd to acft with wingspan of less than 135 ft (b-757-300 or smaller).
  • Twy v ltd to acft with wingspan of less than 118 ft (b-737-900 or smaller).
  • Unscheduled opns by group 5 acft (b747) and larger not auth except with prior arpt approval ctc amgr (408) 392-3500.
Comments
Leave a comment What was your experience like at this airport?